Time;durP1;ratioP1;P1;durP2;ratioP2;P2;SDS_P1;SDS_P2;PMS_P1;PMS_P2;Temp;Humidity;BMP_temperature;BMP_pressure;BME280_temperature;BME280_humidity;BME280_pressure;Samples;Min_cycle;Max_cycle;Signal;HPM_P1;HPM_P2
2023/05/06 00:02:03;;;;;;;;;;;16.30;59.60;;;;;;5107131;28;19920;-69
2023/05/06 00:04:28;;;;;;;;;;;16.30;59.60;;;;;;5091471;28;19927;-69
2023/05/06 00:06:56;;;;;;;;;;;16.30;59.60;;;;;;5073288;28;19977;-69
2023/05/06 00:09:22;;;;;;;;;;;16.30;59.60;;;;;;5107057;28;20014;-68
2023/05/06 00:11:49;;;;;;;;;;;16.30;59.60;;;;;;5070828;28;19924;-68
2023/05/06 00:14:14;;;;;;;;;;;16.30;59.50;;;;;;5069067;28;19963;-68
2023/05/06 00:16:40;;;;;;;;;;;16.30;59.50;;;;;;5107147;28;19963;-69
2023/05/06 00:19:05;;;;;;;;;;;16.20;59.50;;;;;;5107050;28;20362;-69
2023/05/06 00:21:31;;;;;;;;;;;16.30;59.50;;;;;;5071270;28;19924;-69
2023/05/06 00:23:56;;;;;;;;;;;16.30;59.50;;;;;;5106764;28;19927;-69
2023/05/06 00:26:22;;;;;;;;;;;16.20;59.40;;;;;;5106871;28;19920;-68
2023/05/06 00:28:47;;;;;;;;;;;16.20;59.40;;;;;;5067881;28;19928;-69
2023/05/06 00:31:13;;;;;;;;;;;16.20;59.40;;;;;;5090902;28;19989;-69
2023/05/06 00:33:38;;;;;;;;;;;16.20;59.40;;;;;;5090925;28;19920;-69
2023/05/06 00:36:04;;;;;;;;;;;16.20;59.30;;;;;;5091225;28;19939;-69
2023/05/06 00:38:30;;;;;;;;;;;16.20;59.30;;;;;;5091362;28;19994;-69
2023/05/06 00:40:55;;;;;;;;;;;16.20;59.30;;;;;;5091471;28;19923;-69
2023/05/06 00:43:21;;;;;;;;;;;16.20;59.40;;;;;;5090948;28;20303;-69
2023/05/06 00:45:46;;;;;;;;;;;16.20;59.30;;;;;;5106868;28;19920;-68
2023/05/06 00:48:13;;;;;;;;;;;16.20;59.30;;;;;;5106686;28;19977;-69
2023/05/06 00:50:39;;;;;;;;;;;16.10;59.20;;;;;;5091246;28;20310;-69
2023/05/06 00:53:06;;;;;;;;;;;16.20;59.30;;;;;;5106815;28;19924;-69
2023/05/06 00:55:32;;;;;;;;;;;16.20;59.30;;;;;;5068158;28;20350;-69
2023/05/06 00:57:58;;;;;;;;;;;16.10;59.20;;;;;;5090933;28;19928;-69
2023/05/06 01:00:23;;;;;;;;;;;16.20;59.30;;;;;;5091058;28;20360;-68
2023/05/06 01:02:49;;;;;;;;;;;16.20;59.20;;;;;;5072764;28;19920;-69
2023/05/06 01:05:16;;;;;;;;;;;16.20;59.20;;;;;;5106465;28;20311;-70
2023/05/06 01:08:01;;;;;;;;;;;16.10;59.10;;;;;;5090903;28;19980;-70
2023/05/06 01:10:34;;;;;;;;;;;16.10;59.10;;;;;;5071380;28;19956;-70
2023/05/06 01:13:20;;;;;;;;;;;16.10;59.10;;;;;;5072088;28;19920;-70
2023/05/06 01:15:46;;;;;;;;;;;16.10;59.10;;;;;;5071208;28;19920;-70
2023/05/06 01:18:14;;;;;;;;;;;16.10;59.10;;;;;;5067473;28;20429;-70
2023/05/06 01:20:42;;;;;;;;;;;16.10;59.10;;;;;;5072489;28;19935;-70
2023/05/06 01:23:11;;;;;;;;;;;16.20;59.10;;;;;;5090450;28;20372;-70
2023/05/06 01:25:37;;;;;;;;;;;16.10;59.10;;;;;;5090548;28;20435;-70
2023/05/06 01:28:02;;;;;;;;;;;16.10;59.10;;;;;;5102400;28;20015;-70
2023/05/06 01:30:31;;;;;;;;;;;16.10;59.10;;;;;;5068671;28;19920;-70
2023/05/06 01:33:03;;;;;;;;;;;16.10;59.10;;;;;;5069607;28;19924;-69
2023/05/06 01:35:48;;;;;;;;;;;16.10;59.10;;;;;;5070916;28;19920;-70
2023/05/06 01:38:18;;;;;;;;;;;16.10;59.10;;;;;;5073900;28;19928;-70
2023/05/06 01:40:46;;;;;;;;;;;16.10;59.00;;;;;;5072848;28;19965;-70
2023/05/06 01:43:13;;;;;;;;;;;16.10;59.00;;;;;;5072581;28;20459;-69
2023/05/06 01:45:39;;;;;;;;;;;16.00;59.00;;;;;;5073082;28;20411;-69
2023/05/06 01:48:05;;;;;;;;;;;16.10;59.00;;;;;;5072395;28;20426;-70
2023/05/06 01:50:31;;;;;;;;;;;16.00;58.90;;;;;;5070553;28;20345;-70
2023/05/06 01:52:57;;;;;;;;;;;16.10;59.00;;;;;;5106366;28;19921;-69
2023/05/06 01:55:23;;;;;;;;;;;16.10;59.00;;;;;;5071928;28;20003;-70
2023/05/06 01:57:48;;;;;;;;;;;16.00;58.90;;;;;;5072441;28;20062;-70
2023/05/06 02:00:14;;;;;;;;;;;16.10;59.00;;;;;;5072933;28;19925;-69
2023/05/06 02:02:40;;;;;;;;;;;16.00;58.90;;;;;;5105925;28;20393;-71
2023/05/06 02:05:06;;;;;;;;;;;16.10;59.00;;;;;;5106413;28;19921;-70
2023/05/06 02:07:31;;;;;;;;;;;16.00;59.60;;;;;;5071998;28;19924;-70
2023/05/06 02:09:56;;;;;;;;;;;16.00;58.90;;;;;;5071919;28;19927;-70
2023/05/06 02:12:22;;;;;;;;;;;16.00;58.90;;;;;;5072308;28;20353;-70
2023/05/06 02:14:47;;;;;;;;;;;16.00;58.80;;;;;;5105763;28;20134;-70
2023/05/06 02:17:13;;;;;;;;;;;16.00;58.80;;;;;;5073474;28;19924;-70
2023/05/06 02:19:38;;;;;;;;;;;16.00;58.80;;;;;;5071923;28;19935;-70
2023/05/06 02:22:04;;;;;;;;;;;16.00;58.80;;;;;;5072099;28;20040;-70
2023/05/06 02:24:29;;;;;;;;;;;16.00;58.80;;;;;;5071699;28;19970;-69
2023/05/06 02:26:55;;;;;;;;;;;16.00;58.80;;;;;;5076240;28;20335;-69
2023/05/06 02:29:20;;;;;;;;;;;16.00;58.80;;;;;;5072136;28;19924;-70
2023/05/06 02:31:46;;;;;;;;;;;16.00;58.80;;;;;;5093274;28;20330;-70
2023/05/06 02:34:11;;;;;;;;;;;16.00;58.80;;;;;;5093512;28;19921;-70
2023/05/06 02:36:37;;;;;;;;;;;16.00;58.80;;;;;;5088821;28;20019;-70
2023/05/06 02:39:03;;;;;;;;;;;16.00;58.70;;;;;;5108781;28;19927;-70
2023/05/06 02:41:29;;;;;;;;;;;15.90;58.70;;;;;;5071419;28;19920;-69
2023/05/06 02:43:54;;;;;;;;;;;15.90;58.70;;;;;;5072212;28;20018;-70
2023/05/06 02:46:20;;;;;;;;;;;15.90;58.70;;;;;;5075257;28;19920;-70
2023/05/06 02:48:45;;;;;;;;;;;15.90;58.70;;;;;;5108772;28;19992;-70
2023/05/06 02:51:11;;;;;;;;;;;15.90;58.60;;;;;;5071918;28;19927;-69
2023/05/06 02:53:36;;;;;;;;;;;15.90;58.60;;;;;;5074512;28;19943;-69
2023/05/06 02:56:02;;;;;;;;;;;15.90;58.60;;;;;;5092514;28;19924;-70
2023/05/06 02:58:28;;;;;;;;;;;15.90;58.60;;;;;;5072736;28;20372;-69
2023/05/06 03:00:53;;;;;;;;;;;15.90;58.60;;;;;;5106168;28;19919;-69
2023/05/06 03:03:19;;;;;;;;;;;15.90;58.60;;;;;;5108448;28;20288;-70
2023/05/06 03:05:45;;;;;;;;;;;15.90;58.60;;;;;;5090691;28;20014;-70
2023/05/06 03:08:10;;;;;;;;;;;15.90;58.60;;;;;;5092985;28;20018;-70
2023/05/06 03:10:36;;;;;;;;;;;15.90;58.60;;;;;;5092509;28;20371;-70
2023/05/06 03:13:01;;;;;;;;;;;15.80;58.50;;;;;;5092324;28;19960;-70
2023/05/06 03:15:27;;;;;;;;;;;15.80;58.50;;;;;;5074385;28;19927;-70
2023/05/06 03:17:52;;;;;;;;;;;15.80;58.50;;;;;;5092326;28;20418;-70
2023/05/06 03:20:18;;;;;;;;;;;15.80;58.50;;;;;;5069024;28;19927;-70
2023/05/06 03:22:43;;;;;;;;;;;15.80;58.40;;;;;;5107768;28;19967;-70
2023/05/06 03:25:09;;;;;;;;;;;15.80;58.40;;;;;;5069379;28;19927;-69
2023/05/06 03:27:35;;;;;;;;;;;15.80;58.50;;;;;;5069081;28;19971;-69
2023/05/06 03:30:00;;;;;;;;;;;15.80;58.50;;;;;;5091113;28;19920;-70
2023/05/06 03:32:26;;;;;;;;;;;15.80;58.40;;;;;;5107757;28;20209;-69
2023/05/06 03:34:51;;;;;;;;;;;15.80;58.50;;;;;;5107664;28;20388;-70
2023/05/06 03:37:17;;;;;;;;;;;15.80;58.40;;;;;;5092209;28;19968;-70
2023/05/06 03:39:43;;;;;;;;;;;15.80;58.40;;;;;;5073721;28;20432;-69
2023/05/06 03:42:08;;;;;;;;;;;15.80;58.40;;;;;;5091681;28;19926;-69
2023/05/06 03:44:34;;;;;;;;;;;15.80;58.40;;;;;;5073721;28;19967;-70
2023/05/06 03:46:59;;;;;;;;;;;15.80;58.40;;;;;;5069091;28;20283;-70
2023/05/06 03:49:25;;;;;;;;;;;15.80;58.40;;;;;;5073629;28;19999;-70
2023/05/06 03:51:52;;;;;;;;;;;15.80;58.40;;;;;;5073530;28;19924;-70
2023/05/06 03:54:17;;;;;;;;;;;15.80;58.40;;;;;;5074513;28;19977;-68
2023/05/06 03:56:43;;;;;;;;;;;15.70;58.30;;;;;;5107185;28;20018;-69
2023/05/06 03:59:08;;;;;;;;;;;15.70;58.30;;;;;;5090878;28;20001;-69
2023/05/06 04:01:34;;;;;;;;;;;15.70;58.30;;;;;;5068335;28;19924;-70
2023/05/06 04:04:00;;;;;;;;;;;15.70;58.20;;;;;;5106996;28;19970;-70
2023/05/06 04:06:25;;;;;;;;;;;15.70;58.20;;;;;;5091623;28;19920;-70
2023/05/06 04:08:51;;;;;;;;;;;15.70;58.20;;;;;;5091247;28;19924;-70
2023/05/06 04:11:17;;;;;;;;;;;15.70;58.30;;;;;;5091241;28;20257;-70
2023/05/06 04:13:42;;;;;;;;;;;15.70;58.20;;;;;;5091372;28;19981;-69
2023/05/06 04:16:08;;;;;;;;;;;15.70;58.20;;;;;;5073189;28;19920;-69
2023/05/06 04:18:34;;;;;;;;;;;15.70;58.20;;;;;;5073941;28;19967;-70
2023/05/06 04:20:59;;;;;;;;;;;15.70;58.20;;;;;;5107340;28;19959;-70
2023/05/06 04:23:25;;;;;;;;;;;15.70;58.20;;;;;;5070480;28;19955;-70
2023/05/06 04:25:51;;;;;;;;;;;15.70;58.20;;;;;;5091227;28;19920;-69
2023/05/06 04:28:17;;;;;;;;;;;15.70;58.20;;;;;;5064433;28;20403;-70
2023/05/06 04:30:43;;;;;;;;;;;15.70;58.20;;;;;;5068872;28;19920;-70
2023/05/06 04:33:08;;;;;;;;;;;15.70;58.20;;;;;;5070811;28;19921;-70
2023/05/06 04:35:34;;;;;;;;;;;15.70;58.20;;;;;;5071798;28;19925;-70
2023/05/06 04:37:59;;;;;;;;;;;15.70;58.20;;;;;;5069682;28;19977;-70
2023/05/06 04:40:26;;;;;;;;;;;15.70;58.20;;;;;;5069749;28;19921;-69
2023/05/06 04:42:52;;;;;;;;;;;15.60;58.20;;;;;;5070839;28;19920;-70
2023/05/06 04:45:17;;;;;;;;;;;15.60;58.20;;;;;;5103449;28;20421;-70
2023/05/06 04:47:43;;;;;;;;;;;15.60;58.20;;;;;;5069461;28;20021;-69
2023/05/06 04:50:08;;;;;;;;;;;15.60;58.20;;;;;;5070702;28;19954;-70
2023/05/06 04:52:35;;;;;;;;;;;15.60;58.30;;;;;;5069501;28;20343;-69
2023/05/06 04:55:00;;;;;;;;;;;15.60;58.20;;;;;;5069584;28;19939;-70
2023/05/06 04:57:26;;;;;;;;;;;15.60;58.30;;;;;;5103904;28;19920;-70
2023/05/06 04:59:51;;;;;;;;;;;15.60;58.30;;;;;;5069735;28;19920;-70
2023/05/06 05:02:17;;;;;;;;;;;15.60;58.30;;;;;;5069842;28;20279;-70
2023/05/06 05:04:42;;;;;;;;;;;15.60;58.30;;;;;;5069573;28;20360;-70
2023/05/06 05:07:08;;;;;;;;;;;15.60;58.30;;;;;;5069569;28;19920;-70
2023/05/06 05:09:34;;;;;;;;;;;15.60;58.30;;;;;;5069607;28;19931;-70
2023/05/06 05:12:01;;;;;;;;;;;15.60;58.30;;;;;;5106956;28;19924;-70
2023/05/06 05:14:26;;;;;;;;;;;15.60;58.30;;;;;;5106990;28;19921;-70
2023/05/06 05:16:52;;;;;;;;;;;15.60;58.30;;;;;;5073244;28;19932;-70
2023/05/06 05:19:17;;;;;;;;;;;15.60;58.40;;;;;;5072928;28;20372;-71
2023/05/06 05:21:43;;;;;;;;;;;15.60;58.30;;;;;;5074596;28;19921;-70
2023/05/06 05:24:08;;;;;;;;;;;15.60;58.30;;;;;;5073116;28;19920;-70
2023/05/06 05:26:34;;;;;;;;;;;15.60;59.10;;;;;;5072990;28;19924;-70
2023/05/06 05:28:59;;;;;;;;;;;15.60;58.40;;;;;;5072594;28;20387;-70
2023/05/06 05:31:25;;;;;;;;;;;15.60;58.50;;;;;;5072595;28;20395;-70
2023/05/06 05:33:50;;;;;;;;;;;15.50;58.40;;;;;;5073023;28;20007;-70
2023/05/06 05:36:16;;;;;;;;;;;15.60;58.40;;;;;;5074196;28;19973;-70
2023/05/06 05:38:41;;;;;;;;;;;15.50;58.40;;;;;;5072771;28;19921;-70
2023/05/06 05:41:07;;;;;;;;;;;15.50;58.40;;;;;;5072610;28;19925;-69
2023/05/06 05:43:32;;;;;;;;;;;15.60;58.50;;;;;;5074647;28;20385;-69
2023/05/06 05:45:57;;;;;;;;;;;15.60;58.50;;;;;;5073972;28;19925;-69
2023/05/06 05:48:23;;;;;;;;;;;15.60;58.50;;;;;;5106280;28;19974;-70
2023/05/06 05:50:48;;;;;;;;;;;15.60;58.50;;;;;;5072570;28;19934;-70
2023/05/06 05:53:14;;;;;;;;;;;15.50;59.10;;;;;;5072367;28;20408;-70
2023/05/06 05:55:40;;;;;;;;;;;15.60;58.40;;;;;;5072352;28;19964;-70
2023/05/06 05:58:05;;;;;;;;;;;15.60;58.40;;;;;;5072587;28;19924;-70
2023/05/06 06:00:31;;;;;;;;;;;15.60;58.50;;;;;;5073599;28;19928;-72
2023/05/06 06:02:56;;;;;;;;;;;15.60;58.50;;;;;;5072836;28;19928;-70
2023/05/06 06:05:22;;;;;;;;;;;15.60;58.40;;;;;;5072197;28;19928;-70
2023/05/06 06:07:47;;;;;;;;;;;15.60;58.40;;;;;;5073106;28;19950;-70
2023/05/06 06:10:14;;;;;;;;;;;15.60;58.40;;;;;;5072181;28;19924;-70
2023/05/06 06:12:40;;;;;;;;;;;15.60;58.40;;;;;;5072093;28;19974;-70
2023/05/06 06:15:05;;;;;;;;;;;15.60;58.40;;;;;;5072299;28;20314;-70
2023/05/06 06:17:31;;;;;;;;;;;15.60;58.40;;;;;;5105974;28;20259;-70
2023/05/06 06:19:57;;;;;;;;;;;15.70;58.40;;;;;;5071788;28;19920;-71
2023/05/06 06:22:23;;;;;;;;;;;15.70;58.40;;;;;;5105544;28;19970;-70
2023/05/06 06:24:48;;;;;;;;;;;15.70;58.40;;;;;;5106198;28;19967;-70
2023/05/06 06:27:14;;;;;;;;;;;15.70;58.40;;;;;;5078933;28;20524;-70
2023/05/06 06:29:39;;;;;;;;;;;15.70;58.40;;;;;;5093358;28;19924;-70
2023/05/06 06:32:05;;;;;;;;;;;15.70;58.40;;;;;;5106698;28;20413;-70
2023/05/06 06:34:30;;;;;;;;;;;15.70;58.40;;;;;;5093068;28;19920;-70
2023/05/06 06:36:56;;;;;;;;;;;15.70;58.40;;;;;;5109177;28;20446;-70
2023/05/06 06:39:21;;;;;;;;;;;15.70;58.30;;;;;;5093133;28;19977;-70
2023/05/06 06:41:47;;;;;;;;;;;15.70;58.40;;;;;;5093731;28;19924;-70
2023/05/06 06:44:12;;;;;;;;;;;15.70;58.40;;;;;;5108926;28;19927;-70
2023/05/06 06:46:38;;;;;;;;;;;15.70;58.40;;;;;;5092898;28;19943;-70
2023/05/06 06:49:03;;;;;;;;;;;15.70;58.40;;;;;;5108703;28;19920;-70
2023/05/06 06:51:30;;;;;;;;;;;15.70;58.40;;;;;;5075157;28;19935;-70
2023/05/06 06:53:55;;;;;;;;;;;15.70;58.40;;;;;;5074577;28;19931;-70
2023/05/06 06:56:21;;;;;;;;;;;15.70;58.30;;;;;;5108596;28;19920;-69
2023/05/06 06:58:47;;;;;;;;;;;15.70;58.30;;;;;;5092994;28;19924;-70
2023/05/06 07:01:12;;;;;;;;;;;15.70;58.40;;;;;;5108348;28;20295;-70
2023/05/06 07:03:38;;;;;;;;;;;15.70;58.40;;;;;;5092530;28;20130;-70
2023/05/06 07:06:03;;;;;;;;;;;15.70;58.40;;;;;;5074254;28;19924;-70
2023/05/06 07:08:29;;;;;;;;;;;15.70;58.40;;;;;;5092206;28;19920;-70
2023/05/06 07:10:55;;;;;;;;;;;15.70;58.40;;;;;;5106075;28;20010;-70
2023/05/06 07:13:22;;;;;;;;;;;15.70;58.40;;;;;;5092599;28;19927;-70
2023/05/06 07:15:47;;;;;;;;;;;15.70;58.40;;;;;;5092257;28;19924;-70
2023/05/06 07:18:13;;;;;;;;;;;15.70;58.40;;;;;;5092530;28;19943;-70
2023/05/06 07:20:39;;;;;;;;;;;15.70;58.40;;;;;;5074489;28;19985;-70
2023/05/06 07:23:04;;;;;;;;;;;15.70;58.40;;;;;;5092339;28;20256;-70
2023/05/06 07:25:30;;;;;;;;;;;15.70;58.40;;;;;;5092358;28;20347;-70
2023/05/06 07:27:55;;;;;;;;;;;15.70;58.40;;;;;;5092037;28;20243;-69
2023/05/06 07:30:21;;;;;;;;;;;15.70;58.40;;;;;;5107665;28;19927;-69
2023/05/06 07:32:47;;;;;;;;;;;15.70;58.40;;;;;;5107737;28;19924;-70
2023/05/06 07:35:12;;;;;;;;;;;15.80;58.60;;;;;;5107827;28;19924;-70
2023/05/06 07:37:38;;;;;;;;;;;15.70;59.20;;;;;;5070868;28;20387;-69
2023/05/06 07:40:04;;;;;;;;;;;15.70;58.50;;;;;;5107524;28;19959;-69
2023/05/06 07:42:29;;;;;;;;;;;15.70;58.60;;;;;;5073911;28;19974;-70
2023/05/06 07:44:54;;;;;;;;;;;15.70;58.60;;;;;;5091681;28;20011;-69
2023/05/06 07:47:28;;;;;;;;;;;15.70;58.60;;;;;;5091983;28;20128;-69
2023/05/06 07:49:54;;;;;;;;;;;15.70;58.60;;;;;;5072562;28;19969;-69
2023/05/06 07:52:20;;;;;;;;;;;15.70;58.70;;;;;;5091777;28;19977;-69
2023/05/06 07:54:46;;;;;;;;;;;15.70;58.70;;;;;;5074031;28;20317;-69
2023/05/06 07:57:11;;;;;;;;;;;15.70;58.70;;;;;;5092655;28;19923;-69
2023/05/06 07:59:36;;;;;;;;;;;15.70;58.70;;;;;;5091564;28;20371;-69
2023/05/06 08:02:02;;;;;;;;;;;15.70;58.70;;;;;;5091744;28;19923;-69
2023/05/06 08:04:27;;;;;;;;;;;15.70;58.70;;;;;;5091566;28;19926;-70
2023/05/06 08:06:53;;;;;;;;;;;15.70;58.80;;;;;;5073104;28;20315;-70
2023/05/06 08:09:18;;;;;;;;;;;15.70;58.90;;;;;;5091526;28;19967;-70
2023/05/06 08:11:44;;;;;;;;;;;15.70;59.10;;;;;;5107230;28;19924;-69
2023/05/06 08:14:09;;;;;;;;;;;15.70;59.20;;;;;;5091274;28;19949;-69
2023/05/06 08:16:35;;;;;;;;;;;15.70;59.00;;;;;;5068271;28;19920;-69
2023/05/06 08:19:00;;;;;;;;;;;15.80;58.90;;;;;;5056708;28;19920;-69
2023/05/06 08:21:26;;;;;;;;;;;15.80;59.00;;;;;;5071950;28;19920;-69
2023/05/06 08:23:52;;;;;;;;;;;15.80;59.00;;;;;;5091072;28;20379;-69
2023/05/06 08:26:17;;;;;;;;;;;15.80;58.90;;;;;;5073375;28;20368;-69
2023/05/06 08:28:43;;;;;;;;;;;15.80;58.90;;;;;;5067894;28;19925;-69
2023/05/06 08:31:09;;;;;;;;;;;15.80;58.90;;;;;;5091116;28;20406;-69
2023/05/06 08:33:34;;;;;;;;;;;15.80;59.00;;;;;;5107038;28;19980;-69
2023/05/06 08:36:00;;;;;;;;;;;15.80;59.00;;;;;;5073334;28;19980;-69
2023/05/06 08:38:25;;;;;;;;;;;15.80;58.90;;;;;;5072873;28;19920;-69
2023/05/06 08:40:52;;;;;;;;;;;15.80;58.90;;;;;;5073742;28;19927;-69
2023/05/06 08:43:19;;;;;;;;;;;15.80;59.00;;;;;;5070029;28;19930;-68
2023/05/06 08:45:44;;;;;;;;;;;15.80;58.90;;;;;;5111175;28;19924;-68
2023/05/06 08:48:10;;;;;;;;;;;15.80;58.90;;;;;;5072946;28;19931;-69
2023/05/06 08:50:39;;;;;;;;;;;15.80;58.90;;;;;;5071914;28;19920;-69
2023/05/06 08:53:04;;;;;;;;;;;15.80;59.00;;;;;;5094865;28;20341;-68
2023/05/06 08:55:31;;;;;;;;;;;15.80;59.20;;;;;;5095220;28;19920;-68
2023/05/06 08:57:57;;;;;;;;;;;15.80;59.20;;;;;;5077676;28;20510;-68
2023/05/06 09:00:23;;;;;;;;;;;15.80;59.20;;;;;;5074361;28;19920;-68
2023/05/06 09:02:48;;;;;;;;;;;15.80;59.10;;;;;;5073948;28;19920;-69
2023/05/06 09:05:15;;;;;;;;;;;15.90;59.20;;;;;;5110676;28;19931;-68
2023/05/06 09:07:40;;;;;;;;;;;15.90;59.20;;;;;;5110566;28;19924;-69
2023/05/06 09:10:12;;;;;;;;;;;15.90;59.10;;;;;;5076611;28;20390;-69
2023/05/06 09:12:38;;;;;;;;;;;15.90;59.10;;;;;;5076480;28;19920;-69
2023/05/06 09:15:03;;;;;;;;;;;15.90;58.90;;;;;;5110655;28;20307;-68
2023/05/06 09:17:31;;;;;;;;;;;15.90;58.80;;;;;;5094783;28;19920;-68
2023/05/06 09:19:57;;;;;;;;;;;16.00;58.80;;;;;;5075650;28;19928;-69
2023/05/06 09:22:23;;;;;;;;;;;15.90;58.70;;;;;;5076372;28;19919;-69
2023/05/06 09:24:55;;;;;;;;;;;16.00;58.70;;;;;;5076496;28;19931;-69
2023/05/06 09:27:22;;;;;;;;;;;16.00;58.50;;;;;;5094341;28;19924;-68
2023/05/06 09:30:04;;;;;;;;;;;16.00;58.50;;;;;;5094976;28;19931;-68
2023/05/06 09:32:29;;;;;;;;;;;16.00;58.40;;;;;;5092560;28;20260;-68
2023/05/06 09:34:55;;;;;;;;;;;16.00;58.30;;;;;;5109769;28;19920;-68
2023/05/06 09:37:21;;;;;;;;;;;16.00;58.30;;;;;;5093134;28;19920;-68
2023/05/06 09:39:46;;;;;;;;;;;16.10;58.30;;;;;;5092653;28;19927;-68
2023/05/06 09:42:12;;;;;;;;;;;16.10;58.40;;;;;;5093481;28;19920;-68
2023/05/06 09:44:38;;;;;;;;;;;16.10;58.30;;;;;;5089169;28;19951;-68
2023/05/06 09:47:04;;;;;;;;;;;16.10;58.30;;;;;;5071240;28;19927;-68
2023/05/06 09:49:30;;;;;;;;;;;16.10;58.30;;;;;;5109269;28;19920;-68
2023/05/06 09:51:56;;;;;;;;;;;16.10;58.30;;;;;;5109685;28;20299;-68
2023/05/06 09:54:22;;;;;;;;;;;16.10;58.30;;;;;;5076530;28;19926;-68
2023/05/06 09:56:49;;;;;;;;;;;16.10;58.40;;;;;;5075619;28;19920;-68
2023/05/06 09:59:17;;;;;;;;;;;16.10;58.40;;;;;;5109540;28;19971;-68
2023/05/06 10:01:43;;;;;;;;;;;16.10;58.40;;;;;;5093849;28;19920;-68
2023/05/06 10:04:11;;;;;;;;;;;16.10;58.40;;;;;;5076221;28;19969;-68
2023/05/06 10:06:38;;;;;;;;;;;16.10;58.40;;;;;;5092458;28;19927;-68
2023/05/06 10:09:05;;;;;;;;;;;16.20;58.50;;;;;;5109441;28;19978;-68
2023/05/06 10:11:31;;;;;;;;;;;16.20;58.60;;;;;;5070728;28;19963;-68
2023/05/06 10:13:58;;;;;;;;;;;16.10;58.60;;;;;;5109489;28;19967;-68
2023/05/06 10:16:24;;;;;;;;;;;16.20;58.60;;;;;;5075237;28;19997;-68
2023/05/06 10:18:50;;;;;;;;;;;16.10;58.70;;;;;;5093410;28;20329;-68
2023/05/06 10:21:20;;;;;;;;;;;16.20;58.80;;;;;;5075702;28;19920;-68
2023/05/06 10:23:51;;;;;;;;;;;16.20;59.10;;;;;;5109254;28;20291;-68
2023/05/06 10:26:18;;;;;;;;;;;16.20;58.90;;;;;;5092515;28;20283;-68
2023/05/06 10:28:45;;;;;;;;;;;16.10;58.80;;;;;;5108642;28;20014;-68
2023/05/06 10:31:11;;;;;;;;;;;16.20;58.90;;;;;;5093052;28;20014;-68
2023/05/06 10:33:38;;;;;;;;;;;16.20;58.90;;;;;;5074824;28;19926;-68
2023/05/06 10:36:20;;;;;;;;;;;16.20;59.00;;;;;;5093068;28;20368;-68
2023/05/06 10:38:49;;;;;;;;;;;16.20;59.10;;;;;;5074913;28;19924;-68
2023/05/06 10:41:15;;;;;;;;;;;16.10;59.20;;;;;;5075432;28;19924;-68
2023/05/06 10:43:42;;;;;;;;;;;16.20;59.10;;;;;;5092852;28;19924;-68
2023/05/06 10:46:11;;;;;;;;;;;16.20;59.00;;;;;;5075862;28;19920;-68
2023/05/06 10:48:38;;;;;;;;;;;16.20;59.20;;;;;;5092718;28;19959;-68
2023/05/06 10:54:02;;;;;;;;;;;16.20;59.40;;;;;;5081550;28;19922;-68
2023/05/06 10:56:29;;;;;;;;;;;16.20;59.40;;;;;;5069387;28;19967;-68
2023/05/06 10:58:55;;;;;;;;;;;16.20;59.60;;;;;;5072348;28;20438;-68
2023/05/06 11:01:24;;;;;;;;;;;16.20;59.60;;;;;;5073316;28;19924;-68
2023/05/06 11:03:50;;;;;;;;;;;16.20;59.60;;;;;;5072783;28;19921;-68
2023/05/06 11:06:35;;;;;;;;;;;16.20;59.70;;;;;;5056041;28;20367;-68
2023/05/06 11:09:01;;;;;;;;;;;16.20;59.60;;;;;;5083717;28;19943;-68
2023/05/06 11:11:46;;;;;;;;;;;16.20;59.70;;;;;;5073348;28;19921;-68
2023/05/06 11:14:12;;;;;;;;;;;16.20;59.70;;;;;;5073987;28;19933;-68
2023/05/06 11:16:48;;;;;;;;;;;16.20;59.80;;;;;;5074355;28;19925;-68
2023/05/06 11:19:20;;;;;;;;;;;16.20;59.80;;;;;;5071802;28;20104;-68
2023/05/06 11:21:46;;;;;;;;;;;16.20;59.90;;;;;;5067877;28;19959;-68
2023/05/06 11:24:12;;;;;;;;;;;16.20;59.90;;;;;;5090033;28;19968;-68
2023/05/06 11:26:38;;;;;;;;;;;16.20;60.00;;;;;;5072716;28;19921;-68
2023/05/06 11:29:04;;;;;;;;;;;16.20;60.00;;;;;;5074012;28;19920;-68
2023/05/06 11:31:36;;;;;;;;;;;16.20;60.00;;;;;;5072724;28;19947;-67
2023/05/06 11:34:05;;;;;;;;;;;16.20;60.00;;;;;;5071573;28;19921;-68
2023/05/06 11:36:31;;;;;;;;;;;16.20;60.00;;;;;;5073042;28;20348;-67
2023/05/06 11:38:57;;;;;;;;;;;16.20;60.10;;;;;;5067945;28;19920;-68
2023/05/06 11:41:23;;;;;;;;;;;16.20;60.10;;;;;;5072903;28;20273;-67
2023/05/06 11:43:49;;;;;;;;;;;16.20;60.20;;;;;;5073728;28;19993;-67
2023/05/06 11:46:15;;;;;;;;;;;16.20;60.20;;;;;;5067867;28;19920;-68
2023/05/06 11:48:42;;;;;;;;;;;16.20;60.10;;;;;;5072214;28;19979;-68
2023/05/06 11:51:08;;;;;;;;;;;16.20;60.10;;;;;;5083016;28;20296;-68
2023/05/06 11:53:33;;;;;;;;;;;16.20;60.20;;;;;;5070991;28;19925;-68
2023/05/06 11:55:59;;;;;;;;;;;16.20;60.20;;;;;;5071965;28;19957;-67
2023/05/06 11:58:25;;;;;;;;;;;16.20;60.20;;;;;;5067651;28;19975;-67
2023/05/06 12:00:53;;;;;;;;;;;16.20;60.30;;;;;;5072446;28;20146;-68
2023/05/06 12:03:19;;;;;;;;;;;16.20;60.30;;;;;;5069758;28;20372;-68
2023/05/06 12:05:46;;;;;;;;;;;16.20;60.30;;;;;;5058709;28;20533;-68
2023/05/06 12:08:12;;;;;;;;;;;16.20;60.40;;;;;;5060152;28;20291;-67
2023/05/06 12:10:38;;;;;;;;;;;16.20;60.40;;;;;;5053719;28;19921;-67
2023/05/06 12:13:04;;;;;;;;;;;16.20;60.40;;;;;;5055183;28;19979;-68
2023/05/06 12:15:30;;;;;;;;;;;16.20;60.40;;;;;;5058372;28;19927;-67
2023/05/06 12:17:56;;;;;;;;;;;16.20;60.40;;;;;;5058114;28;19921;-68
2023/05/06 12:20:21;;;;;;;;;;;16.20;60.40;;;;;;5058781;28;20039;-67
2023/05/06 12:23:03;;;;;;;;;;;16.20;60.50;;;;;;5059095;28;20376;-67
2023/05/06 12:25:29;;;;;;;;;;;16.30;60.60;;;;;;5058470;28;20008;-67
2023/05/06 12:27:56;;;;;;;;;;;16.20;60.40;;;;;;5058448;28;20008;-67
2023/05/06 12:30:37;;;;;;;;;;;16.30;60.50;;;;;;5070340;28;19925;-67
2023/05/06 12:33:02;;;;;;;;;;;16.30;60.60;;;;;;5054046;28;20369;-67
2023/05/06 12:35:28;;;;;;;;;;;16.30;60.60;;;;;;5055355;28;19920;-67
2023/05/06 12:37:54;;;;;;;;;;;16.40;60.80;;;;;;5058115;28;19928;-67
2023/05/06 12:40:19;;;;;;;;;;;16.30;60.70;;;;;;5057055;28;20407;-68
2023/05/06 12:42:52;;;;;;;;;;;16.30;60.70;;;;;;5055881;28;19924;-67
2023/05/06 12:45:17;;;;;;;;;;;16.30;60.80;;;;;;5057314;28;20270;-67
2023/05/06 12:47:50;;;;;;;;;;;16.30;60.80;;;;;;5058102;28;19927;-67
2023/05/06 12:50:29;;;;;;;;;;;16.30;60.80;;;;;;5059272;28;20018;-67
2023/05/06 12:52:54;;;;;;;;;;;16.30;60.80;;;;;;5068395;28;20288;-67
2023/05/06 12:55:22;;;;;;;;;;;16.30;60.80;;;;;;5061129;28;19920;-67
2023/05/06 12:57:48;;;;;;;;;;;16.30;60.80;;;;;;5056826;28;19924;-67
2023/05/06 13:00:14;;;;;;;;;;;16.30;60.80;;;;;;5060226;28;20394;-67
2023/05/06 13:02:40;;;;;;;;;;;16.30;60.80;;;;;;5044373;28;19920;-67
2023/05/06 13:05:05;;;;;;;;;;;16.30;60.90;;;;;;5060789;28;20321;-67
2023/05/06 13:07:31;;;;;;;;;;;16.40;60.90;;;;;;5057380;28;20267;-67
2023/05/06 13:09:56;;;;;;;;;;;16.40;60.90;;;;;;5076026;28;20265;-67
2023/05/06 13:12:22;;;;;;;;;;;16.30;60.80;;;;;;5054445;28;19925;-67
2023/05/06 13:14:47;;;;;;;;;;;16.40;60.90;;;;;;5060732;28;20006;-67
2023/05/06 13:17:13;;;;;;;;;;;16.40;60.90;;;;;;5077607;28;19920;-67
2023/05/06 13:19:38;;;;;;;;;;;16.40;60.90;;;;;;5058317;28;19928;-67
2023/05/06 13:22:04;;;;;;;;;;;16.40;60.90;;;;;;5073051;28;19929;-67
2023/05/06 13:24:30;;;;;;;;;;;16.40;61.00;;;;;;5058787;28;19920;-67
2023/05/06 13:26:58;;;;;;;;;;;16.40;60.90;;;;;;5077688;28;19920;-67
2023/05/06 13:29:23;;;;;;;;;;;16.40;61.00;;;;;;5060554;28;20444;-67
2023/05/06 13:31:49;;;;;;;;;;;16.40;61.00;;;;;;5078215;28;19921;-67
2023/05/06 13:34:15;;;;;;;;;;;16.40;60.90;;;;;;5059840;28;20364;-67
2023/05/06 13:36:42;;;;;;;;;;;16.40;61.00;;;;;;5072152;28;19932;-67
2023/05/06 13:39:08;;;;;;;;;;;16.40;61.00;;;;;;5059234;28;20280;-67
2023/05/06 13:41:34;;;;;;;;;;;16.40;60.90;;;;;;5060319;28;19921;-66
2023/05/06 13:43:59;;;;;;;;;;;16.40;61.00;;;;;;5060486;28;20003;-66
2023/05/06 13:46:26;;;;;;;;;;;16.50;61.20;;;;;;5073423;28;20421;-67
2023/05/06 13:48:52;;;;;;;;;;;16.40;61.20;;;;;;5078282;28;19925;-67
2023/05/06 13:51:17;;;;;;;;;;;16.50;61.30;;;;;;5059837;28;19974;-66
2023/05/06 13:53:43;;;;;;;;;;;16.50;61.30;;;;;;5059267;28;19928;-67
2023/05/06 13:56:08;;;;;;;;;;;16.50;61.20;;;;;;5072822;28;19920;-67
2023/05/06 13:58:34;;;;;;;;;;;16.50;61.20;;;;;;5070835;28;19999;-67
2023/05/06 14:01:00;;;;;;;;;;;16.50;61.30;;;;;;5059145;28;19921;-67
2023/05/06 14:03:26;;;;;;;;;;;16.50;61.30;;;;;;5073153;28;19921;-66
2023/05/06 14:05:51;;;;;;;;;;;16.50;61.30;;;;;;5057014;28;20395;-67
2023/05/06 14:08:17;;;;;;;;;;;16.50;61.30;;;;;;5059915;28;20427;-67
2023/05/06 14:10:42;;;;;;;;;;;16.50;61.30;;;;;;5059682;28;19963;-67
2023/05/06 14:13:08;;;;;;;;;;;16.50;61.20;;;;;;5071199;28;19931;-67
2023/05/06 14:15:33;;;;;;;;;;;16.50;61.30;;;;;;5058884;28;19971;-67